createdAt,value
2022-10-27T00:00:26.738Z,4.29
2022-10-27T00:01:13.193Z,4.32
2022-10-27T00:01:59.624Z,4.25
2022-10-27T00:02:45.985Z,4.60
2022-10-27T00:03:32.401Z,4.35
2022-10-27T00:04:18.820Z,4.07
2022-10-27T00:05:05.350Z,4.60
2022-10-27T00:05:51.729Z,4.85
2022-10-27T00:06:38.296Z,5.03
2022-10-27T00:07:25.874Z,4.92
2022-10-27T00:08:16.394Z,4.84
2022-10-27T00:09:03.467Z,5.02
2022-10-27T00:09:49.860Z,4.62
2022-10-27T00:10:36.650Z,4.56
2022-10-27T00:11:22.994Z,4.53
2022-10-27T00:12:09.378Z,4.26
2022-10-27T00:12:55.703Z,3.92
2022-10-27T00:13:42.432Z,4.38
2022-10-27T00:14:28.801Z,4.81
2022-10-27T00:15:15.387Z,4.76
2022-10-27T00:16:03.605Z,4.07
2022-10-27T00:16:57.251Z,4.16
2022-10-27T00:17:43.732Z,4.05
2022-10-27T00:18:30.882Z,4.18
2022-10-27T00:19:17.280Z,4.25
2022-10-27T00:21:04.276Z,4.25
2022-10-27T00:21:51.678Z,4.32
2022-10-27T00:22:38.048Z,4.50
2022-10-27T00:23:24.442Z,4.08
2022-10-27T00:24:11.164Z,3.99
2022-10-27T00:24:57.686Z,3.93
2022-10-27T00:25:44.027Z,4.51
2022-10-27T00:26:30.463Z,4.30
2022-10-27T00:27:17.102Z,3.98
2022-10-27T00:28:03.640Z,4.05
2022-10-27T00:28:50.046Z,3.74
2022-10-27T00:29:36.392Z,4.10
2022-10-27T00:30:22.788Z,4.16
2022-10-27T00:31:16.858Z,4.42
2022-10-27T00:32:03.323Z,3.85
2022-10-27T00:32:49.895Z,4.12
2022-10-27T00:33:36.697Z,4.09
2022-10-27T00:34:23.080Z,3.99
2022-10-27T00:35:09.577Z,4.10
2022-10-27T00:35:55.964Z,3.94
2022-10-27T00:37:33.649Z,3.94
2022-10-27T00:38:21.274Z,3.66
2022-10-27T00:39:08.654Z,3.70
2022-10-27T00:39:54.996Z,3.42
2022-10-27T00:40:41.365Z,3.65
2022-10-27T00:41:27.675Z,3.71
2022-10-27T00:42:14.474Z,3.49
2022-10-27T00:43:00.824Z,3.31
2022-10-27T00:43:47.244Z,3.26
2022-10-27T00:44:33.608Z,3.76
2022-10-27T00:45:20.801Z,3.83
2022-10-27T00:46:21.816Z,3.78
2022-10-27T00:47:11.122Z,3.53
2022-10-27T00:47:57.703Z,3.59
2022-10-27T00:48:44.473Z,3.68
2022-10-27T00:49:38.022Z,3.68
2022-10-27T00:50:26.525Z,3.60
2022-10-27T00:51:16.641Z,3.57
2022-10-27T00:52:05.166Z,3.56
2022-10-27T00:52:53.528Z,3.60
2022-10-27T00:53:40.376Z,3.74
2022-10-27T00:54:29.361Z,3.68
2022-10-27T00:55:19.231Z,3.91
2022-10-27T00:56:05.837Z,3.42
2022-10-27T00:56:54.466Z,3.49
2022-10-27T00:57:44.345Z,3.29
2022-10-27T00:58:31.324Z,3.10
2022-10-27T00:59:19.167Z,3.28
2022-10-27T01:00:06.395Z,3.48
2022-10-27T01:00:56.049Z,3.42
2022-10-27T01:01:43.144Z,3.36
2022-10-27T01:02:29.796Z,3.20
2022-10-27T01:03:18.979Z,3.33
2022-10-27T01:04:05.969Z,3.51
2022-10-27T01:05:00.972Z,3.32
2022-10-27T01:05:48.068Z,3.25
2022-10-27T01:06:34.971Z,3.17
2022-10-27T01:07:22.488Z,3.42
2022-10-27T01:08:08.980Z,3.37
2022-10-27T01:08:57.203Z,2.88
2022-10-27T01:09:43.905Z,3.31
2022-10-27T01:10:30.959Z,2.98
2022-10-27T01:11:17.360Z,2.84
2022-10-27T01:12:03.957Z,3.07
2022-10-27T01:12:50.904Z,2.95
2022-10-27T01:13:38.191Z,3.33
2022-10-27T01:14:26.047Z,3.28
2022-10-27T01:15:13.616Z,3.12
2022-10-27T01:16:00.191Z,3.15
2022-10-27T01:17:00.485Z,3.06
2022-10-27T01:17:58.158Z,3.25
2022-10-27T01:18:47.597Z,3.27
2022-10-27T01:19:50.197Z,3.20
2022-10-27T01:20:36.499Z,3.03
2022-10-27T01:21:35.093Z,2.80
2022-10-27T01:22:21.470Z,2.90
2022-10-27T01:23:09.971Z,3.38
2022-10-27T01:24:22.340Z,3.36
2022-10-27T01:25:28.610Z,2.92
2022-10-27T01:26:34.358Z,3.19
2022-10-27T01:27:23.457Z,2.75
2022-10-27T01:28:33.064Z,2.94
2022-10-27T01:29:25.541Z,2.67
2022-10-27T01:30:15.947Z,2.96
2022-10-27T01:31:08.933Z,2.91
2022-10-27T01:32:17.348Z,3.11
2022-10-27T01:33:13.189Z,3.22
2022-10-27T01:34:11.372Z,2.98
2022-10-27T01:35:00.299Z,3.12
2022-10-27T01:36:03.641Z,3.22
2022-10-27T01:36:59.408Z,2.75
2022-10-27T01:37:49.911Z,2.59
2022-10-27T01:38:42.263Z,2.86
2022-10-27T01:39:39.184Z,2.95
2022-10-27T01:40:33.513Z,3.01
2022-10-27T01:41:27.509Z,2.90
2022-10-27T01:42:17.358Z,2.93
2022-10-27T01:43:09.872Z,3.01
2022-10-27T01:44:01.732Z,3.10
2022-10-27T01:44:51.754Z,2.99
2022-10-27T01:45:39.643Z,2.82
2022-10-27T01:46:26.292Z,3.11
2022-10-27T01:47:13.557Z,3.51
2022-10-27T01:48:00.658Z,2.92
2022-10-27T01:48:47.653Z,2.74
2022-10-27T01:49:36.814Z,2.97
2022-10-27T01:50:40.348Z,2.85
2022-10-27T01:51:37.152Z,3.03
2022-10-27T01:52:44.404Z,2.74
2022-10-27T01:53:33.153Z,2.78
2022-10-27T01:54:20.601Z,2.88
2022-10-27T01:55:10.969Z,2.97
2022-10-27T01:56:06.364Z,3.24
2022-10-27T01:57:04.251Z,2.95
2022-10-27T01:57:50.626Z,3.06
2022-10-27T01:58:52.528Z,2.95
2022-10-27T01:59:51.811Z,2.84
2022-10-27T02:00:56.789Z,2.71
2022-10-27T02:01:43.247Z,3.09
2022-10-27T02:02:32.777Z,3.15
2022-10-27T02:03:24.290Z,3.28
2022-10-27T02:04:21.165Z,3.07
2022-10-27T02:05:21.763Z,3.19
2022-10-27T02:06:19.294Z,3.04
2022-10-27T02:07:12.273Z,3.28
2022-10-27T02:08:01.474Z,2.92
2022-10-27T02:08:53.628Z,3.28
2022-10-27T02:09:50.208Z,3.54
2022-10-27T02:10:51.822Z,3.47
2022-10-27T02:11:42.251Z,3.16
2022-10-27T02:12:31.566Z,3.42
2022-10-27T02:13:17.991Z,3.69
2022-10-27T02:14:05.076Z,3.84
2022-10-27T02:14:54.573Z,3.39
2022-10-27T02:15:47.068Z,3.53
2022-10-27T02:16:39.775Z,3.75
2022-10-27T02:17:31.746Z,3.57
2022-10-27T02:18:23.826Z,3.46
2022-10-27T02:19:16.397Z,3.34
2022-10-27T02:20:06.684Z,3.33
2022-10-27T02:20:56.486Z,3.49
2022-10-27T02:21:45.301Z,3.03
2022-10-27T02:22:32.543Z,3.13
2022-10-27T02:23:21.254Z,3.11
2022-10-27T02:24:08.460Z,3.15
2022-10-27T02:24:55.718Z,3.05
2022-10-27T02:25:50.228Z,2.88
2022-10-27T02:26:43.488Z,2.94
2022-10-27T02:27:39.396Z,2.95
2022-10-27T02:28:29.957Z,2.70
2022-10-27T02:29:36.671Z,3.11
2022-10-27T02:30:23.140Z,2.79
2022-10-27T02:31:12.600Z,2.80
2022-10-27T02:32:02.231Z,3.00
2022-10-27T02:32:49.000Z,2.91
2022-10-27T02:33:38.013Z,2.85
2022-10-27T02:34:25.628Z,2.94
2022-10-27T02:35:14.274Z,3.21
2022-10-27T02:36:00.744Z,3.09
2022-10-27T02:36:47.542Z,3.15
2022-10-27T02:37:36.251Z,3.05
2022-10-27T02:38:22.966Z,2.96
2022-10-27T02:39:09.309Z,3.02
2022-10-27T02:39:55.773Z,2.99
2022-10-27T02:40:42.354Z,3.05
2022-10-27T02:41:28.749Z,2.81
2022-10-27T02:42:15.099Z,3.04
2022-10-27T02:43:01.610Z,3.17
2022-10-27T02:43:48.068Z,3.24
2022-10-27T02:44:34.408Z,3.26
2022-10-27T02:45:21.341Z,3.15
2022-10-27T02:46:07.790Z,3.06
2022-10-27T02:46:54.259Z,2.93
2022-10-27T02:47:41.110Z,2.93
2022-10-27T02:48:27.459Z,2.83
2022-10-27T02:49:13.810Z,2.95
2022-10-27T02:50:00.150Z,2.69
2022-10-27T02:50:47.563Z,2.47
2022-10-27T02:51:34.083Z,2.58
2022-10-27T02:52:20.453Z,2.84
2022-10-27T02:53:06.912Z,2.92
2022-10-27T02:53:53.351Z,2.93
2022-10-27T02:54:40.128Z,2.94
2022-10-27T02:55:26.482Z,3.08
2022-10-27T02:56:12.869Z,3.16
2022-10-27T02:56:59.233Z,3.18
2022-10-27T02:57:46.777Z,2.84
2022-10-27T02:58:33.162Z,2.98
2022-10-27T02:59:19.569Z,3.04
2022-10-27T03:00:06.608Z,2.93
2022-10-27T03:00:57.402Z,2.94
2022-10-27T03:01:44.005Z,3.02
2022-10-27T03:02:30.703Z,3.33
2022-10-27T03:03:17.251Z,3.16
2022-10-27T03:04:03.712Z,2.83
2022-10-27T03:04:50.135Z,3.01
2022-10-27T03:05:36.680Z,3.07
2022-10-27T03:06:23.028Z,3.10
2022-10-27T03:07:09.471Z,3.09
2022-10-27T03:07:55.800Z,3.20
2022-10-27T03:08:42.171Z,3.58
2022-10-27T03:09:28.522Z,3.61
2022-10-27T03:10:14.905Z,3.12
2022-10-27T03:11:01.296Z,3.21
2022-10-27T03:11:47.646Z,2.88
2022-10-27T03:12:33.972Z,3.03
2022-10-27T03:13:20.547Z,2.92
2022-10-27T03:14:06.916Z,3.03
2022-10-27T03:14:53.257Z,3.05
2022-10-27T03:15:40.310Z,3.08
2022-10-27T03:16:26.652Z,3.04
2022-10-27T03:17:12.972Z,3.05
2022-10-27T03:17:59.304Z,3.25
2022-10-27T03:18:46.087Z,3.27
2022-10-27T03:19:32.426Z,3.13
2022-10-27T03:20:18.843Z,3.09
2022-10-27T03:21:05.225Z,3.19
2022-10-27T03:21:51.573Z,3.23
2022-10-27T03:22:38.639Z,2.93
2022-10-27T03:23:26.102Z,2.95
2022-10-27T03:24:12.512Z,2.78
2022-10-27T03:24:58.893Z,3.05
2022-10-27T03:25:47.671Z,3.03
2022-10-27T03:26:35.092Z,2.91
2022-10-27T03:27:24.131Z,3.02
2022-10-27T03:28:11.636Z,3.25
2022-10-27T03:28:57.993Z,3.39
2022-10-27T03:30:30.865Z,3.12
2022-10-27T03:31:17.205Z,3.10
2022-10-27T03:32:03.799Z,3.14
2022-10-27T03:32:51.686Z,2.86
2022-10-27T03:33:38.405Z,2.88
2022-10-27T03:34:24.858Z,2.84
2022-10-27T03:35:11.267Z,3.01
2022-10-27T03:35:58.274Z,2.97
2022-10-27T03:36:44.715Z,3.16
2022-10-27T03:37:31.076Z,3.15
2022-10-27T03:38:17.453Z,3.29
2022-10-27T03:39:03.838Z,3.03
2022-10-27T03:39:50.426Z,2.80
2022-10-27T03:40:36.796Z,3.06
2022-10-27T03:41:23.191Z,3.03
2022-10-27T03:42:09.541Z,2.88
2022-10-27T03:42:58.672Z,3.05
2022-10-27T03:43:45.129Z,3.34
2022-10-27T03:44:31.515Z,3.41
2022-10-27T03:45:17.849Z,3.02
2022-10-27T03:46:04.225Z,3.19
2022-10-27T03:46:50.718Z,2.79
2022-10-27T03:47:37.502Z,3.25
2022-10-27T03:48:23.824Z,3.20
2022-10-27T03:49:10.616Z,3.09
2022-10-27T03:49:56.956Z,3.29
2022-10-27T03:50:47.747Z,3.19
2022-10-27T03:51:34.296Z,3.20
2022-10-27T03:52:21.776Z,3.57
2022-10-27T03:53:09.835Z,3.78
2022-10-27T03:53:56.769Z,3.50
2022-10-27T03:54:43.173Z,3.69
2022-10-27T03:55:30.740Z,3.88
2022-10-27T03:56:17.096Z,3.79
2022-10-27T03:57:03.465Z,3.85
2022-10-27T03:57:49.946Z,3.94
2022-10-27T03:58:36.300Z,3.73
2022-10-27T03:59:22.923Z,3.48
2022-10-27T04:00:09.751Z,3.78
2022-10-27T04:01:05.471Z,3.80
2022-10-27T04:01:52.169Z,4.30
2022-10-27T04:02:38.677Z,4.35
2022-10-27T04:03:25.137Z,3.82
2022-10-27T04:04:12.067Z,3.97
2022-10-27T04:04:58.442Z,3.99
2022-10-27T04:05:48.567Z,3.67
2022-10-27T04:06:34.911Z,3.61
2022-10-27T04:07:21.287Z,3.90
2022-10-27T04:08:07.957Z,3.73
2022-10-27T04:08:54.335Z,3.79
2022-10-27T04:09:40.800Z,3.46
2022-10-27T04:10:27.559Z,3.35
2022-10-27T04:11:13.917Z,3.00
2022-10-27T04:12:01.598Z,3.52
2022-10-27T04:12:49.119Z,3.94
2022-10-27T04:13:35.957Z,3.70
2022-10-27T04:14:22.409Z,3.44
2022-10-27T04:15:08.944Z,3.35
2022-10-27T04:15:56.315Z,3.34
2022-10-27T04:16:42.740Z,3.34
2022-10-27T04:17:29.151Z,3.45
2022-10-27T04:18:15.499Z,3.33
2022-10-27T04:19:01.825Z,3.55
2022-10-27T04:19:48.462Z,3.85
2022-10-27T04:20:34.954Z,3.67
2022-10-27T04:21:21.504Z,3.39
2022-10-27T04:22:07.933Z,3.48
2022-10-27T04:22:58.181Z,3.46
2022-10-27T04:23:45.488Z,3.71
2022-10-27T04:24:32.133Z,3.49
2022-10-27T04:25:18.540Z,3.56
2022-10-27T04:26:06.522Z,3.23
2022-10-27T04:26:53.476Z,3.10
2022-10-27T04:27:39.797Z,3.17
2022-10-27T04:28:26.374Z,3.21
2022-10-27T04:29:12.745Z,3.17
2022-10-27T04:29:59.065Z,3.20
2022-10-27T04:30:45.442Z,3.02
2022-10-27T04:31:32.282Z,3.24
2022-10-27T04:32:18.634Z,3.32
2022-10-27T04:33:05.020Z,3.33
2022-10-27T04:33:52.331Z,3.54
2022-10-27T04:34:38.723Z,3.41
2022-10-27T04:35:25.412Z,3.50
2022-10-27T04:36:12.009Z,3.39
2022-10-27T04:36:58.425Z,3.23
2022-10-27T04:37:44.788Z,2.86
2022-10-27T04:38:33.485Z,3.27
2022-10-27T04:39:22.805Z,3.19
2022-10-27T04:40:09.466Z,3.28
2022-10-27T04:40:59.274Z,3.47
2022-10-27T04:41:45.628Z,3.26
2022-10-27T04:42:33.810Z,3.24
2022-10-27T04:43:20.749Z,3.03
2022-10-27T04:44:07.863Z,3.04
2022-10-27T04:44:54.273Z,3.45
2022-10-27T04:45:42.210Z,3.38
2022-10-27T04:46:28.551Z,3.34
2022-10-27T04:47:14.959Z,3.19
2022-10-27T04:48:01.374Z,3.21
2022-10-27T04:48:47.749Z,3.26
2022-10-27T04:49:34.213Z,3.05
2022-10-27T04:50:20.673Z,3.28
2022-10-27T04:51:07.108Z,3.45
2022-10-27T04:51:53.549Z,3.51
2022-10-27T04:52:43.549Z,3.30
2022-10-27T04:53:30.926Z,3.28
2022-10-27T04:54:17.444Z,3.47
2022-10-27T04:55:03.981Z,2.98
2022-10-27T04:55:52.002Z,3.26
2022-10-27T04:56:38.733Z,3.03
2022-10-27T04:57:25.059Z,3.18
2022-10-27T04:58:11.504Z,3.34
2022-10-27T04:58:57.865Z,3.08
2022-10-27T04:59:44.306Z,3.32
2022-10-27T05:01:18.112Z,3.17
2022-10-27T05:02:04.552Z,3.08
2022-10-27T05:02:58.762Z,3.12
2022-10-27T05:03:47.269Z,3.32
2022-10-27T05:04:33.772Z,3.44
2022-10-27T05:05:20.232Z,3.54
2022-10-27T05:06:06.930Z,3.90
2022-10-27T05:06:53.279Z,3.29
2022-10-27T05:07:39.627Z,3.28
2022-10-27T05:08:25.958Z,3.53
2022-10-27T05:09:12.371Z,3.41
2022-10-27T05:09:58.787Z,3.63
2022-10-27T05:10:46.491Z,3.58
2022-10-27T05:11:32.849Z,3.66
2022-10-27T05:12:19.245Z,3.72
2022-10-27T05:13:05.665Z,3.85
2022-10-27T05:13:52.024Z,3.66
2022-10-27T05:14:38.381Z,3.70
2022-10-27T05:15:24.837Z,3.64
2022-10-27T05:16:11.332Z,3.53
2022-10-27T05:16:58.001Z,3.58
2022-10-27T05:17:44.605Z,3.86
2022-10-27T05:18:31.699Z,3.94
2022-10-27T05:19:18.064Z,4.00
2022-10-27T05:20:04.781Z,3.91
2022-10-27T05:20:51.118Z,3.92
2022-10-27T05:21:37.538Z,3.68
2022-10-27T05:22:24.326Z,3.84
2022-10-27T05:23:11.706Z,3.51
2022-10-27T05:23:58.109Z,3.67
2022-10-27T05:24:44.476Z,3.78
2022-10-27T05:25:30.879Z,3.62
2022-10-27T05:26:17.330Z,3.63
2022-10-27T05:27:03.647Z,3.52
2022-10-27T05:27:50.624Z,3.56
2022-10-27T05:28:37.760Z,3.69
2022-10-27T05:29:25.411Z,3.78
2022-10-27T05:30:12.975Z,3.23
2022-10-27T05:31:03.669Z,3.67
2022-10-27T05:31:50.008Z,3.91
2022-10-27T05:32:37.475Z,3.58
2022-10-27T05:33:23.896Z,3.64
2022-10-27T05:34:10.277Z,3.63
2022-10-27T05:34:56.896Z,3.15
2022-10-27T05:35:45.229Z,3.40
2022-10-27T05:36:31.640Z,3.49
2022-10-27T05:37:18.015Z,3.68
2022-10-27T05:38:04.402Z,3.66
2022-10-27T05:38:50.723Z,3.72
2022-10-27T05:39:37.072Z,3.57
2022-10-27T05:40:23.427Z,3.30
2022-10-27T05:41:10.039Z,3.45
2022-10-27T05:41:56.375Z,3.79
2022-10-27T05:42:51.206Z,3.61
2022-10-27T05:43:41.519Z,3.31
2022-10-27T05:44:30.050Z,3.33
2022-10-27T05:45:16.599Z,3.35
2022-10-27T05:46:03.288Z,3.37
2022-10-27T05:46:49.618Z,3.47
2022-10-27T05:47:35.931Z,3.11
2022-10-27T05:48:22.480Z,3.64
2022-10-27T05:49:08.857Z,3.30
2022-10-27T05:49:55.199Z,3.32
2022-10-27T05:51:28.892Z,3.72
2022-10-27T05:52:15.278Z,3.52
2022-10-27T05:53:02.266Z,3.45
2022-10-27T05:53:51.864Z,3.62
2022-10-27T05:54:38.826Z,3.46
2022-10-27T05:55:26.061Z,3.56
2022-10-27T05:56:12.433Z,3.43
2022-10-27T05:56:59.196Z,3.33
2022-10-27T05:57:52.418Z,3.31
2022-10-27T05:58:38.767Z,3.54
2022-10-27T05:59:25.259Z,3.51
2022-10-27T06:00:11.889Z,3.63
2022-10-27T06:01:01.917Z,3.72
2022-10-27T06:01:48.465Z,3.86
2022-10-27T06:02:34.963Z,3.69
2022-10-27T06:03:22.877Z,3.37
2022-10-27T06:04:09.391Z,3.51
2022-10-27T06:04:55.710Z,3.27
2022-10-27T06:05:42.074Z,3.23
2022-10-27T06:06:28.580Z,3.72
2022-10-27T06:07:14.951Z,3.48
2022-10-27T06:08:01.358Z,3.17
2022-10-27T06:08:47.707Z,3.38
2022-10-27T06:09:34.207Z,3.66
2022-10-27T06:10:20.791Z,3.67
2022-10-27T06:11:07.143Z,3.68
2022-10-27T06:11:53.629Z,3.75
2022-10-27T06:12:39.982Z,3.79
2022-10-27T06:13:26.371Z,3.91
2022-10-27T06:14:12.955Z,3.69
2022-10-27T06:14:59.329Z,3.87
2022-10-27T06:15:45.862Z,3.75
2022-10-27T06:16:32.707Z,3.31
2022-10-27T06:17:19.072Z,3.61
2022-10-27T06:18:06.843Z,3.63
2022-10-27T06:18:54.162Z,4.09
2022-10-27T06:19:40.577Z,3.61
2022-10-27T06:20:27.661Z,4.07
2022-10-27T06:21:14.347Z,3.57
2022-10-27T06:22:00.656Z,4.22
2022-10-27T06:22:47.227Z,3.84
2022-10-27T06:23:33.569Z,3.58
2022-10-27T06:24:19.921Z,3.80
2022-10-27T06:25:06.347Z,3.43
2022-10-27T06:25:54.529Z,3.80
2022-10-27T06:26:43.052Z,3.44
2022-10-27T06:27:30.855Z,4.10
2022-10-27T06:28:17.368Z,3.89
2022-10-27T06:29:06.015Z,3.97
2022-10-27T06:29:52.481Z,4.42
2022-10-27T06:30:38.882Z,4.57
2022-10-27T06:31:25.399Z,5.01
2022-10-27T06:32:11.942Z,5.06
2022-10-27T06:32:58.453Z,6.66
2022-10-27T06:33:44.826Z,7.68
2022-10-27T06:34:31.291Z,8.07
2022-10-27T06:35:18.773Z,9.78
2022-10-27T06:36:05.265Z,12.12
2022-10-27T06:36:51.597Z,15.21
2022-10-27T06:37:39.451Z,15.40
2022-10-27T06:38:25.824Z,13.67
2022-10-27T06:39:12.196Z,15.22
2022-10-27T06:39:58.769Z,12.41
2022-10-27T06:40:45.600Z,10.14
2022-10-27T06:41:31.941Z,8.46
2022-10-27T06:42:18.339Z,9.59
2022-10-27T06:43:11.638Z,9.31
2022-10-27T06:43:58.704Z,8.50
2022-10-27T06:44:45.130Z,8.05
2022-10-27T06:45:31.565Z,7.50
2022-10-27T06:46:18.114Z,8.54
2022-10-27T06:47:04.690Z,10.30
2022-10-27T06:47:58.252Z,17.65
2022-10-27T06:48:44.637Z,28.68
2022-10-27T06:49:31.024Z,36.08
2022-10-27T06:50:17.411Z,28.32
2022-10-27T06:51:03.846Z,24.16
2022-10-27T06:51:50.201Z,21.24
2022-10-27T06:52:37.336Z,26.25
2022-10-27T06:53:23.685Z,31.92
2022-10-27T06:54:10.063Z,32.92
2022-10-27T06:55:00.218Z,30.14
2022-10-27T06:55:46.611Z,30.94
2022-10-27T06:56:34.652Z,29.37
2022-10-27T06:57:21.346Z,23.72
2022-10-27T06:58:08.003Z,31.90
2022-10-27T06:58:54.452Z,34.08
2022-10-27T06:59:41.043Z,33.34
2022-10-27T07:00:27.471Z,31.85
2022-10-27T07:01:13.980Z,28.42
2022-10-27T07:02:00.417Z,25.81
2022-10-27T07:02:47.371Z,24.36
2022-10-27T07:03:35.144Z,23.79
2022-10-27T07:04:21.490Z,25.13
2022-10-27T07:05:08.255Z,25.39
2022-10-27T07:05:54.777Z,23.70
2022-10-27T07:06:41.137Z,23.92
2022-10-27T07:07:27.571Z,25.59
2022-10-27T07:08:13.905Z,24.08
2022-10-27T07:09:01.631Z,23.96
2022-10-27T07:09:49.864Z,24.46
2022-10-27T07:10:36.229Z,22.78
2022-10-27T07:11:26.667Z,21.22
2022-10-27T07:12:13.079Z,20.18
2022-10-27T07:13:00.883Z,20.43
2022-10-27T07:13:47.391Z,20.47
2022-10-27T07:14:33.947Z,18.71
2022-10-27T07:15:20.652Z,17.70
2022-10-27T07:16:07.464Z,19.30
2022-10-27T07:16:53.803Z,18.37
2022-10-27T07:17:40.237Z,16.61
2022-10-27T07:18:26.574Z,14.80
2022-10-27T07:19:12.955Z,13.12
2022-10-27T07:19:59.273Z,11.86
2022-10-27T07:20:46.554Z,12.10
2022-10-27T07:21:32.987Z,12.24
2022-10-27T07:22:19.423Z,11.51
2022-10-27T07:23:06.994Z,10.12
2022-10-27T07:23:53.587Z,10.33
2022-10-27T07:24:40.169Z,10.69
2022-10-27T07:25:27.591Z,10.88
2022-10-27T07:26:14.036Z,10.94
2022-10-27T07:27:00.753Z,11.21
2022-10-27T07:27:47.844Z,11.20
2022-10-27T07:28:34.266Z,10.11
2022-10-27T07:29:20.669Z,10.24
2022-10-27T07:30:07.175Z,10.84
2022-10-27T07:30:54.974Z,9.70
2022-10-27T07:31:45.445Z,9.89
2022-10-27T07:32:31.806Z,10.35
2022-10-27T07:33:19.641Z,10.49
2022-10-27T07:34:06.027Z,9.88
2022-10-27T07:34:52.445Z,9.08
2022-10-27T07:35:39.070Z,9.71
2022-10-27T07:36:25.462Z,10.43
2022-10-27T07:37:11.842Z,10.79
2022-10-27T07:37:58.179Z,9.87
2022-10-27T07:38:44.507Z,9.18
2022-10-27T07:39:30.885Z,8.78
2022-10-27T07:40:18.934Z,7.24
2022-10-27T07:41:05.464Z,6.78
2022-10-27T07:41:51.884Z,6.69
2022-10-27T07:42:45.454Z,6.86
2022-10-27T07:43:31.977Z,6.86
2022-10-27T07:44:18.362Z,6.23
2022-10-27T07:45:04.893Z,5.79
2022-10-27T07:45:51.219Z,5.58
2022-10-27T07:46:37.650Z,5.08
2022-10-27T07:47:24.036Z,5.34
2022-10-27T07:48:12.504Z,4.85
2022-10-27T07:48:58.863Z,4.67
2022-10-27T07:49:45.226Z,3.84
2022-10-27T07:50:34.368Z,4.05
2022-10-27T07:51:21.005Z,3.97
2022-10-27T07:52:07.444Z,4.43
2022-10-27T07:52:54.121Z,4.07
2022-10-27T07:53:40.856Z,3.89
2022-10-27T07:54:27.225Z,4.43
2022-10-27T07:55:17.393Z,4.23
2022-10-27T07:56:03.816Z,4.14
2022-10-27T07:56:50.192Z,4.08
2022-10-27T07:57:37.172Z,3.89
2022-10-27T07:58:23.579Z,4.05
2022-10-27T07:59:10.054Z,3.73
2022-10-27T07:59:56.778Z,3.33
2022-10-27T08:00:44.748Z,3.67
2022-10-27T08:01:31.274Z,3.60
2022-10-27T08:02:17.833Z,3.50
2022-10-27T08:03:05.812Z,3.26
2022-10-27T08:03:52.206Z,3.33
2022-10-27T08:04:38.539Z,3.73
2022-10-27T08:05:24.877Z,3.30
2022-10-27T08:06:11.231Z,3.24
2022-10-27T08:06:57.615Z,3.45
2022-10-27T08:07:43.969Z,3.23
2022-10-27T08:08:31.075Z,3.37
2022-10-27T08:09:19.896Z,2.62
2022-10-27T08:10:06.834Z,2.70
2022-10-27T08:10:53.153Z,2.97
2022-10-27T08:11:39.603Z,2.68
2022-10-27T08:12:26.152Z,2.37
2022-10-27T08:13:12.710Z,2.99
2022-10-27T08:13:59.024Z,2.88
2022-10-27T08:14:45.540Z,3.02
2022-10-27T08:15:33.148Z,2.54
2022-10-27T08:16:19.474Z,2.68
2022-10-27T08:17:05.791Z,2.91
2022-10-27T08:17:53.443Z,2.50
2022-10-27T08:18:40.429Z,2.48
2022-10-27T08:19:26.758Z,2.40
2022-10-27T08:20:13.144Z,2.70
2022-10-27T08:20:59.511Z,3.26
2022-10-27T08:21:45.890Z,2.35
2022-10-27T08:22:32.297Z,2.30
2022-10-27T08:23:20.407Z,2.34
2022-10-27T08:24:07.030Z,2.34
2022-10-27T08:24:54.011Z,2.39
2022-10-27T08:25:40.527Z,2.20
2022-10-27T08:26:27.023Z,2.15
2022-10-27T08:27:13.435Z,2.25
2022-10-27T08:28:00.035Z,2.41
2022-10-27T08:28:48.992Z,2.35
2022-10-27T08:29:35.385Z,2.20
2022-10-27T08:30:22.736Z,2.09
2022-10-27T08:31:09.096Z,1.90
2022-10-27T08:31:55.440Z,1.91
2022-10-27T08:32:41.778Z,2.16
2022-10-27T08:33:28.127Z,2.10
2022-10-27T08:34:14.501Z,1.99
2022-10-27T08:35:00.843Z,2.09
2022-10-27T08:35:47.403Z,2.21
2022-10-27T08:36:38.986Z,2.36
2022-10-27T08:37:25.456Z,1.74
2022-10-27T08:38:13.804Z,1.91
2022-10-27T08:39:00.432Z,2.13
2022-10-27T08:39:46.755Z,2.00
2022-10-27T08:40:40.521Z,1.92
2022-10-27T08:41:50.001Z,2.24
2022-10-27T08:42:43.796Z,2.37
2022-10-27T08:43:30.112Z,2.13
2022-10-27T08:44:32.093Z,1.99
2022-10-27T08:45:23.752Z,2.20
2022-10-27T08:46:26.315Z,2.18
2022-10-27T08:47:20.779Z,2.04
2022-10-27T08:48:11.651Z,2.04
2022-10-27T08:49:01.867Z,1.82
2022-10-27T08:49:56.200Z,2.09
2022-10-27T08:50:44.114Z,1.93
2022-10-27T08:51:33.159Z,1.77
2022-10-27T08:52:38.009Z,1.82
2022-10-27T08:53:30.281Z,1.88
2022-10-27T08:55:23.527Z,1.98
2022-10-27T08:56:11.271Z,2.01
2022-10-27T08:57:00.014Z,1.98
2022-10-27T08:57:52.687Z,2.10
2022-10-27T08:58:41.230Z,1.96
2022-10-27T08:59:29.416Z,1.74
2022-10-27T09:00:16.073Z,1.97
2022-10-27T09:01:06.884Z,1.98
2022-10-27T09:02:01.093Z,2.02
2022-10-27T09:02:57.086Z,2.07
2022-10-27T09:03:49.583Z,1.94
2022-10-27T09:04:44.431Z,2.23
2022-10-27T09:05:40.239Z,2.12
2022-10-27T09:06:29.769Z,2.17
2022-10-27T09:07:16.078Z,2.09
2022-10-27T09:08:13.984Z,1.98
2022-10-27T09:09:19.746Z,1.95
2022-10-27T09:10:20.650Z,2.00
2022-10-27T09:11:07.230Z,1.85
2022-10-27T09:12:12.417Z,1.99
2022-10-27T09:12:58.754Z,1.91
2022-10-27T09:13:51.076Z,1.87
2022-10-27T09:14:43.356Z,2.13
2022-10-27T09:15:40.596Z,2.05
2022-10-27T09:16:47.366Z,2.07
2022-10-27T09:17:42.359Z,2.06
2022-10-27T09:18:39.168Z,2.02
2022-10-27T09:19:36.527Z,1.91
2022-10-27T09:20:36.847Z,1.96
2022-10-27T09:21:25.825Z,1.81
2022-10-27T09:22:17.926Z,1.84
2022-10-27T09:23:09.605Z,2.05
2022-10-27T09:24:01.070Z,1.95
2022-10-27T09:24:59.821Z,2.15
2022-10-27T09:26:41.886Z,1.80
2022-10-27T09:27:28.287Z,1.84
2022-10-27T09:28:20.006Z,1.55
2022-10-27T09:29:24.599Z,1.79
2022-10-27T09:30:13.193Z,1.89
2022-10-27T09:31:00.802Z,2.05
2022-10-27T09:31:55.318Z,1.96
2022-10-27T09:32:47.580Z,1.95
2022-10-27T09:33:35.518Z,2.01
2022-10-27T09:34:32.703Z,2.15
2022-10-27T09:35:26.600Z,2.02
2022-10-27T09:36:14.618Z,1.64
2022-10-27T09:37:01.266Z,1.96
2022-10-27T09:37:48.629Z,2.14
2022-10-27T09:38:35.394Z,1.74
2022-10-27T09:39:22.571Z,2.09
2022-10-27T09:40:20.848Z,2.18
2022-10-27T09:41:08.451Z,1.97
2022-10-27T09:41:54.886Z,1.92
2022-10-27T09:42:41.825Z,1.60
2022-10-27T09:43:28.220Z,1.85
2022-10-27T09:45:21.146Z,1.89
2022-10-27T09:46:22.982Z,1.99
2022-10-27T09:47:10.046Z,2.58
2022-10-27T09:48:00.002Z,2.26
2022-10-27T09:48:46.551Z,1.86
2022-10-27T09:49:38.013Z,1.94
2022-10-27T09:50:41.165Z,1.94
2022-10-27T09:51:36.522Z,2.32
2022-10-27T09:52:31.019Z,2.38
2022-10-27T09:53:36.107Z,2.29
2022-10-27T09:54:33.773Z,2.01
2022-10-27T09:55:20.309Z,2.04
2022-10-27T09:56:09.802Z,1.96
2022-10-27T09:57:02.855Z,1.93
2022-10-27T09:57:50.282Z,2.18
2022-10-27T09:58:43.408Z,2.13
2022-10-27T09:59:30.849Z,2.26
2022-10-27T10:00:17.259Z,2.26
2022-10-27T10:01:05.324Z,2.08
2022-10-27T10:01:57.562Z,2.22
2022-10-27T10:02:57.990Z,2.23
2022-10-27T10:03:55.328Z,2.05
2022-10-27T10:04:47.976Z,2.31
2022-10-27T10:05:36.441Z,2.38
2022-10-27T10:06:25.604Z,2.09
2022-10-27T10:07:29.467Z,2.12
2022-10-27T10:08:23.515Z,2.08
2022-10-27T10:09:36.357Z,1.87
2022-10-27T10:10:27.058Z,2.18
2022-10-27T10:11:22.912Z,2.21
2022-10-27T10:12:25.794Z,2.37
2022-10-27T10:13:15.486Z,1.99
2022-10-27T10:14:03.924Z,2.02
2022-10-27T10:14:51.000Z,2.09
2022-10-27T10:15:41.194Z,1.94
2022-10-27T10:16:29.089Z,1.94
2022-10-27T10:17:21.277Z,2.44
2022-10-27T10:18:22.797Z,2.47
2022-10-27T10:19:15.212Z,2.48
2022-10-27T10:20:02.311Z,2.40
2022-10-27T10:20:55.778Z,2.19
2022-10-27T10:21:48.829Z,1.97
2022-10-27T10:22:40.156Z,2.12
2022-10-27T10:23:32.366Z,2.27
2022-10-27T10:24:21.151Z,2.24
2022-10-27T10:25:21.154Z,2.36
2022-10-27T10:26:16.930Z,2.03
2022-10-27T10:27:05.982Z,2.34
2022-10-27T10:28:06.430Z,2.35
2022-10-27T10:28:57.083Z,2.06
2022-10-27T10:29:49.071Z,1.99
2022-10-27T10:30:39.110Z,2.17
2022-10-27T10:31:27.569Z,2.44
2022-10-27T10:32:16.677Z,2.26
2022-10-27T10:33:06.235Z,2.46
2022-10-27T10:33:55.384Z,2.28
2022-10-27T10:34:45.023Z,2.23
2022-10-27T10:35:50.936Z,2.12
2022-10-27T10:36:38.932Z,2.32
2022-10-27T10:37:32.985Z,2.14
2022-10-27T10:38:37.271Z,2.44
2022-10-27T10:39:25.417Z,2.60
2022-10-27T10:40:14.575Z,2.72
2022-10-27T10:41:03.725Z,2.66
2022-10-27T10:42:08.806Z,2.63
2022-10-27T10:43:11.848Z,2.29
2022-10-27T10:44:09.367Z,2.28
2022-10-27T10:45:09.474Z,2.84
2022-10-27T10:45:57.648Z,2.62
2022-10-27T10:46:54.261Z,2.86
2022-10-27T10:47:46.968Z,2.59
2022-10-27T10:48:46.935Z,2.41
2022-10-27T10:49:36.955Z,2.54
2022-10-27T10:50:23.576Z,2.50
2022-10-27T10:51:10.816Z,2.40
2022-10-27T10:52:00.712Z,2.30
2022-10-27T10:52:50.621Z,2.15
2022-10-27T10:53:42.290Z,2.33
2022-10-27T10:54:35.202Z,2.71
2022-10-27T10:55:36.321Z,2.74
2022-10-27T10:56:34.019Z,2.37